Time;durP1;ratioP1;P1;durP2;ratioP2;P2;SDS_P1;SDS_P2;PMS_P1;PMS_P2;Temp;Humidity;BMP_temperature;BMP_pressure;BME280_temperature;BME280_humidity;BME280_pressure;Samples;Min_cycle;Max_cycle;Signal;HPM_P1;HPM_P2
2022/09/12 08:06:04;;;;;;;1.98;1.10;;;19.20;82.80;;;;;;4784309;29;20126;-95
2022/09/12 08:08:31;;;;;;;;;;;19.50;78.50;;;;;;4787824;29;20077;-93
2022/09/12 08:11:00;;;;;;;2.95;1.23;;;19.50;79.70;;;;;;4785087;29;19929;-93
2022/09/12 08:13:28;;;;;;;1.67;0.88;;;19.30;80.50;;;;;;4785520;29;20065;-93
2022/09/12 08:15:58;;;;;;;1.60;0.90;;;19.20;78.90;;;;;;4786791;29;20047;-92
2022/09/12 08:18:27;;;;;;;1.75;1.10;;;19.30;77.70;;;;;;4769214;29;20051;-90
2022/09/12 08:20:59;;;;;;;1.95;1.25;;;19.20;78.20;;;;;;4784911;29;20464;-91
2022/09/12 08:23:27;;;;;;;2.40;1.08;;;19.20;77.70;;;;;;4770418;30;20062;-90
2022/09/12 08:26:00;;;;;;;2.72;0.75;;;19.20;77.60;;;;;;4769226;29;20448;-89
2022/09/12 08:28:34;;;;;;;1.15;0.75;;;19.50;77.80;;;;;;4774099;29;20467;-90
2022/09/12 08:31:11;;;;;;;2.33;0.70;;;19.60;76.80;;;;;;4784646;29;20058;-94
2022/09/12 08:33:39;;;;;;;2.25;0.98;;;19.50;77.30;;;;;;4769303;29;20059;-96
2022/09/12 08:36:13;;;;;;;1.42;0.82;;;19.60;78.40;;;;;;4787104;29;20047;-89
2022/09/12 08:38:43;;;;;;;3.55;1.17;;;19.70;75.00;;;;;;4776465;29;20053;-90
2022/09/12 08:41:29;;;;;;;1.40;0.88;;;19.70;75.00;;;;;;4771639;29;20054;-92
2022/09/12 08:44:02;;;;;;;3.35;1.30;;;19.70;75.40;;;;;;4783783;29;20062;-94
2022/09/12 08:46:40;;;;;;;2.70;0.90;;;19.50;74.70;;;;;;4793533;29;20071;-90
2022/09/12 08:49:12;;;;;;;1.73;1.02;;;19.60;74.80;;;;;;4773397;29;20107;-88
2022/09/12 08:51:41;;;;;;;2.42;0.85;;;19.70;74.30;;;;;;4788624;29;20053;-90
2022/09/12 08:54:20;;;;;;;4.88;1.70;;;19.80;74.30;;;;;;4770392;29;20059;-91
2022/09/12 08:56:48;;;;;;;3.03;1.08;;;19.90;75.50;;;;;;4782456;29;20061;-96
2022/09/12 08:59:16;;;;;;;2.78;1.00;;;19.60;74.30;;;;;;4715259;30;20056;-93
2022/09/12 09:01:44;;;;;;;2.20;1.05;;;19.50;75.70;;;;;;4714915;30;20060;-91
2022/09/12 09:04:33;;;;;;;4.75;0.73;;;19.70;74.90;;;;;;4718397;30;20079;-91
2022/09/12 09:07:27;;;;;;;1.80;0.82;;;19.80;73.90;;;;;;4748354;30;20067;-95
2022/09/12 09:10:27;;;;;;;2.58;1.05;;;20.00;74.60;;;;;;4709125;30;20060;-92
2022/09/12 09:13:10;;;;;;;2.42;1.08;;;20.00;73.90;;;;;;4717155;30;20060;-90
2022/09/12 09:15:48;;;;;;;2.85;1.42;;;20.00;76.50;;;;;;4740486;30;20057;-96
2022/09/12 09:18:29;;;;;;;3.38;1.23;;;20.10;74.70;;;;;;4748780;30;20052;-92
2022/09/12 09:21:05;;;;;;;2.72;1.20;;;20.10;74.70;;;;;;4723992;30;20056;-92
2022/09/12 09:23:40;;;;;;;2.08;0.90;;;20.20;75.70;;;;;;4705886;30;20046;-89
2022/09/12 09:26:13;;;;;;;2.88;1.20;;;20.20;73.50;;;;;;4699917;30;20068;-93
2022/09/12 09:29:12;;;;;;;3.80;1.17;;;20.20;74.40;;;;;;4691141;30;20053;-91
2022/09/12 09:31:41;;;;;;;2.03;1.20;;;20.30;75.30;;;;;;4727111;30;20051;-92
2022/09/12 09:34:18;;;;;;;1.85;0.80;;;20.30;75.50;;;;;;4732454;30;20065;-92
2022/09/12 09:36:51;;;;;;;2.90;1.20;;;20.30;74.40;;;;;;4730425;30;20052;-90
2022/09/12 09:39:30;;;;;;;1.90;1.35;;;20.30;74.30;;;;;;4769458;30;20059;-89
2022/09/12 09:42:32;;;;;;;2.42;1.20;;;20.40;74.10;;;;;;4754600;30;20093;-91
2022/09/12 09:45:03;;;;;;;3.13;1.20;;;20.50;74.50;;;;;;4762000;30;20195;-88
2022/09/12 09:47:30;;;;;;;2.60;1.30;;;20.50;75.00;;;;;;4765758;30;20060;-91
2022/09/12 09:49:59;;;;;;;2.50;0.90;;;20.20;74.30;;;;;;4747178;30;20058;-91
2022/09/12 09:52:29;;;;;;;3.10;1.00;;;20.30;74.60;;;;;;4736925;30;20535;-91
2022/09/12 09:54:59;;;;;;;3.08;1.02;;;20.40;74.30;;;;;;4755575;29;20059;-94
2022/09/12 09:57:33;;;;;;;2.08;1.10;;;20.50;73.90;;;;;;4780881;29;20048;-88
2022/09/12 10:00:20;;;;;;;1.58;0.70;;;20.70;73.30;;;;;;4785481;29;20726;-92
2022/09/12 10:03:13;;;;;;;1.98;0.70;;;20.80;74.10;;;;;;4771091;29;20077;-92
2022/09/12 10:05:57;;;;;;;2.00;0.63;;;20.70;72.00;;;;;;4774064;29;20059;-89
2022/09/12 10:08:35;;;;;;;2.40;0.90;;;20.90;71.20;;;;;;4771191;29;20100;-88
2022/09/12 10:11:15;;;;;;;1.20;0.70;;;20.80;68.90;;;;;;4789603;29;20054;-94
2022/09/12 10:13:50;;;;;;;2.17;0.77;;;20.70;70.50;;;;;;4770339;30;20054;-93
2022/09/12 10:16:18;;;;;;;1.92;0.60;;;20.40;71.80;;;;;;4786084;29;20075;-92
2022/09/12 10:18:45;;;;;;;2.38;2.10;;;20.60;71.30;;;;;;4771082;29;20053;-90
2022/09/12 10:21:22;;;;;;;4.68;3.55;;;20.90;71.40;;;;;;4771887;29;20043;-89
2022/09/12 10:24:18;;;;;;;7.40;4.13;;;20.90;70.90;;;;;;4769679;29;20047;-91
2022/09/12 10:26:55;;;;;;;7.35;3.47;;;20.70;70.40;;;;;;4769054;29;20047;-91
2022/09/12 10:29:31;;;;;;;7.82;3.38;;;20.60;71.10;;;;;;4766745;29;20655;-91
2022/09/12 10:32:03;;;;;;;4.35;2.50;;;20.50;71.90;;;;;;4772314;29;20054;-91
2022/09/12 10:34:41;;;;;;;6.43;3.22;;;20.50;72.70;;;;;;4770922;29;20047;-90
2022/09/12 10:37:19;;;;;;;1.30;0.60;;;20.50;71.70;;;;;;4795691;29;20540;-89
2022/09/12 10:39:53;;;;;;;0.93;0.47;;;20.40;71.40;;;;;;4775898;29;20496;-90
2022/09/12 10:42:44;;;;;;;2.03;0.60;;;20.30;72.30;;;;;;4786727;29;20138;-90
2022/09/12 10:45:35;;;;;;;1.50;0.50;;;20.10;72.40;;;;;;4773248;29;20078;-90
2022/09/12 10:48:30;;;;;;;2.30;0.50;;;20.00;71.60;;;;;;4799914;29;20490;-91
2022/09/12 10:50:59;;;;;;;4.88;0.50;;;19.90;70.60;;;;;;4817851;29;20054;-93
2022/09/12 10:53:27;;;;;;;0.93;0.47;;;19.80;71.40;;;;;;4774573;29;20104;-92
2022/09/12 10:56:15;;;;;;;1.40;0.57;;;19.80;71.70;;;;;;4776755;29;20091;-91
2022/09/12 10:59:20;;;;;;;1.17;0.65;;;19.80;73.50;;;;;;4787856;29;20070;-89
2022/09/12 11:02:00;;;;;;;2.00;0.70;;;19.80;74.50;;;;;;4800442;29;20055;-91
2022/09/12 11:04:46;;;;;;;1.27;0.70;;;19.90;75.50;;;;;;4788148;29;20071;-91
2022/09/12 11:07:22;;;;;;;2.47;0.68;;;20.00;74.80;;;;;;4769446;29;20062;-91
2022/09/12 11:09:56;;;;;;;1.10;0.40;;;20.00;74.00;;;;;;4773188;29;20068;-93
2022/09/12 11:12:35;;;;;;;1.52;0.47;;;20.30;73.10;;;;;;4782300;29;20047;-90
2022/09/12 11:15:54;;;;;;;1.00;0.40;;;20.40;73.70;;;;;;4772246;29;20043;-88
2022/09/12 11:18:42;;;;;;;2.08;0.73;;;20.50;73.80;;;;;;4760142;29;20054;-90
2022/09/12 11:21:38;;;;;;;1.77;0.90;;;20.50;73.40;;;;;;4788242;29;20070;-90
2022/09/12 11:24:58;;;;;;;2.58;0.73;;;20.40;73.30;;;;;;4693071;30;20092;-88
2022/09/12 11:27:53;;;;;;;2.80;0.70;;;20.30;74.00;;;;;;4760608;29;20072;-89
2022/09/12 11:30:21;;;;;;;1.77;1.00;;;20.20;74.40;;;;;;4787197;29;20500;-90
2022/09/12 11:33:31;;;;;;;2.33;0.75;;;20.20;75.20;;;;;;4769096;29;20047;-90
2022/09/12 11:36:03;;;;;;;2.63;1.20;;;20.20;76.80;;;;;;4731898;29;20055;-91
2022/09/12 11:38:37;;;;;;;2.10;0.88;;;20.20;76.40;;;;;;4786657;29;20055;-90
2022/09/12 11:41:43;;;;;;;3.03;1.17;;;20.20;78.10;;;;;;4766502;29;20051;-90
2022/09/12 11:44:28;;;;;;;2.90;1.17;;;20.20;79.50;;;;;;4751142;29;20051;-93
2022/09/12 11:46:57;;;;;;;3.05;1.42;;;20.10;81.00;;;;;;4785687;29;20103;-90
2022/09/12 11:49:38;;;;;;;2.60;1.52;;;20.10;82.20;;;;;;4762377;29;20058;-92
2022/09/12 11:52:05;;;;;;;1.13;0.52;;;20.00;82.00;;;;;;4782533;29;20055;-92
2022/09/12 11:54:46;;;;;;;1.10;0.50;;;20.10;75.10;;;;;;4763906;29;20096;-94
2022/09/12 11:57:25;;;;;;;0.98;0.40;;;20.30;73.10;;;;;;4778854;29;20063;-92
2022/09/12 12:00:07;;;;;;;1.33;0.30;;;20.40;72.50;;;;;;4763265;29;20052;-94
2022/09/12 12:02:50;;;;;;;2.50;0.63;;;20.70;69.90;;;;;;4766473;29;20948;-90
2022/09/12 12:05:29;;;;;;;4.53;1.48;;;20.80;70.50;;;;;;4781171;29;20515;-93
2022/09/12 12:08:03;;;;;;;2.05;1.20;;;20.70;75.20;;;;;;4761617;29;20599;-91
2022/09/12 12:10:58;;;;;;;1.77;1.00;;;20.50;77.80;;;;;;4766635;29;20055;-93
2022/09/12 12:13:48;;;;;;;1.77;0.93;;;20.30;78.10;;;;;;4769058;29;20067;-92
2022/09/12 12:16:30;;;;;;;2.17;1.13;;;20.20;80.40;;;;;;4791275;29;20051;-90
2022/09/12 12:19:00;;;;;;;2.73;1.23;;;20.00;80.90;;;;;;4783038;29;20566;-90
2022/09/12 12:21:30;;;;;;;2.58;1.13;;;20.00;80.10;;;;;;4771022;29;20115;-91
2022/09/12 12:24:07;;;;;;;3.85;1.60;;;19.90;80.00;;;;;;4773485;29;20062;-95
2022/09/12 12:26:53;;;;;;;1.70;1.00;;;19.90;80.20;;;;;;4775527;29;20047;-88
2022/09/12 12:29:21;;;;;;;2.92;1.40;;;19.90;80.30;;;;;;4769568;30;20051;-90
2022/09/12 12:32:03;;;;;;;2.08;1.15;;;19.90;80.50;;;;;;4788178;29;20058;-90
2022/09/12 12:34:34;;;;;;;2.58;1.02;;;19.90;79.70;;;;;;4774103;29;20153;-88
2022/09/12 12:37:20;;;;;;;3.30;1.35;;;19.90;80.00;;;;;;4773468;29;20051;-89
2022/09/12 12:39:59;;;;;;;2.10;1.30;;;19.90;80.10;;;;;;4772718;30;20055;-92
2022/09/12 12:42:33;;;;;;;4.32;1.48;;;20.00;80.00;;;;;;4768186;29;20051;-94
2022/09/12 12:45:19;;;;;;;3.78;1.67;;;20.00;80.60;;;;;;4769959;29;20076;-90
2022/09/12 12:47:53;;;;;;;2.42;1.42;;;20.30;81.40;;;;;;4767441;29;20039;-88
2022/09/12 12:50:26;;;;;;;4.55;1.58;;;20.50;78.50;;;;;;4771871;29;20050;-90
2022/09/12 12:53:19;;;;;;;3.45;1.50;;;20.80;78.20;;;;;;4768842;29;20153;-93
2022/09/12 12:55:51;;;;;;;2.92;1.20;;;20.90;78.80;;;;;;4770457;29;20122;-92
2022/09/12 12:58:33;;;;;;;1.88;1.05;;;20.80;78.80;;;;;;4792498;29;20058;-89
2022/09/12 13:01:12;;;;;;;2.70;1.27;;;20.50;77.90;;;;;;4762977;29;20070;-95
2022/09/12 13:03:44;;;;;;;1.83;1.02;;;20.50;77.60;;;;;;4766478;29;20051;-92
2022/09/12 13:06:30;;;;;;;2.38;1.23;;;20.30;76.90;;;;;;4769890;29;20062;-91
2022/09/12 13:09:06;;;;;;;1.58;0.95;;;20.30;78.10;;;;;;4770947;29;20065;-93
2022/09/12 13:11:40;;;;;;;3.53;0.70;;;20.30;78.10;;;;;;4767211;29;20057;-92
2022/09/12 13:14:45;;;;;;;2.13;1.00;;;20.30;75.00;;;;;;4769179;29;20085;-90
2022/09/12 13:17:30;;;;;;;3.70;0.82;;;20.40;75.50;;;;;;4773374;29;20051;-88
2022/09/12 13:20:06;;;;;;;1.90;0.90;;;20.40;74.20;;;;;;4773696;29;20421;-91
2022/09/12 13:22:53;;;;;;;1.77;0.57;;;20.70;74.00;;;;;;4766543;29;20065;-88
2022/09/12 13:25:26;;;;;;;2.22;0.85;;;20.90;71.80;;;;;;4782278;29;20103;-95
2022/09/12 13:28:00;;;;;;;3.28;0.68;;;21.00;71.60;;;;;;4774803;29;20111;-89
2022/09/12 13:30:31;;;;;;;1.10;0.60;;;21.00;72.70;;;;;;4784971;29;20061;-90
2022/09/12 13:33:08;;;;;;;3.88;0.60;;;20.90;71.60;;;;;;4781865;29;20509;-90
2022/09/12 13:36:18;;;;;;;3.25;0.73;;;20.80;70.80;;;;;;4763839;29;20043;-89
2022/09/12 13:38:56;;;;;;;1.80;0.47;;;20.60;71.30;;;;;;4777854;29;20111;-88
2022/09/12 13:41:24;;;;;;;1.65;0.40;;;20.60;71.90;;;;;;4786755;29;20138;-90
2022/09/12 13:43:51;;;;;;;0.90;0.43;;;20.60;72.40;;;;;;4785013;29;20094;-92
2022/09/12 13:46:29;;;;;;;3.40;0.75;;;20.70;71.70;;;;;;4771763;29;20100;-88
2022/09/12 13:49:00;;;;;;;1.38;0.57;;;20.60;73.60;;;;;;4767958;29;20054;-89
2022/09/12 13:51:31;;;;;;;1.67;0.57;;;20.60;72.90;;;;;;4783491;30;20116;-89
2022/09/12 13:54:03;;;;;;;4.17;0.30;;;20.70;68.80;;;;;;4782616;29;20050;-90
2022/09/12 13:56:30;;;;;;;2.17;0.43;;;20.70;68.60;;;;;;4771645;29;20319;-88
2022/09/12 13:59:00;;;;;;;1.33;0.47;;;20.70;69.60;;;;;;4772182;29;20038;-91
2022/09/12 14:02:00;;;;;;;1.13;0.68;;;20.60;69.20;;;;;;4767982;29;20054;-88
2022/09/12 14:07:50;;;;;;;1.35;0.40;;;20.70;69.10;;;;;;4746509;30;20050;-91
2022/09/12 14:10:30;;;;;;;1.42;0.47;;;20.70;70.40;;;;;;4739918;30;20056;-90
2022/09/12 14:13:00;;;;;;;1.30;0.70;;;20.70;70.00;;;;;;4777753;29;20111;-88
2022/09/12 14:15:30;;;;;;;0.80;0.50;;;20.70;69.40;;;;;;4789979;29;20393;-92
2022/09/12 14:18:00;;;;;;;1.50;0.30;;;20.80;68.60;;;;;;4775936;29;20051;-89
2022/09/12 14:20:33;;;;;;;3.53;0.40;;;20.80;68.40;;;;;;4770127;29;20082;-92
2022/09/12 14:23:17;;;;;;;0.90;0.50;;;20.80;68.50;;;;;;4789813;29;20073;-88
2022/09/12 14:25:46;;;;;;;0.75;0.22;;;20.80;69.80;;;;;;4765314;30;20047;-91
2022/09/12 14:28:19;;;;;;;2.53;0.40;;;20.90;68.70;;;;;;4771568;29;20088;-95
2022/09/12 14:31:05;;;;;;;1.23;0.20;;;21.00;66.80;;;;;;4791127;29;20039;-93
2022/09/12 14:33:56;;;;;;;1.85;0.10;;;21.00;63.40;;;;;;4772167;29;20047;-95
2022/09/12 14:36:33;;;;;;;0.80;0.30;;;21.00;62.10;;;;;;4769005;29;20141;-92
2022/09/12 14:39:03;;;;;;;1.67;0.30;;;21.10;62.40;;;;;;4794697;29;20154;-90
2022/09/12 14:41:35;;;;;;;0.75;0.40;;;21.10;62.70;;;;;;4789258;29;20050;-90
2022/09/12 14:44:07;;;;;;;1.70;0.30;;;21.20;63.30;;;;;;4778864;29;20058;-91
2022/09/12 14:46:37;;;;;;;0.52;0.20;;;21.20;63.70;;;;;;4774512;29;20050;-92
2022/09/12 14:49:22;;;;;;;1.30;0.35;;;21.10;64.10;;;;;;4774868;29;20055;-91
2022/09/12 14:52:01;;;;;;;2.35;0.52;;;21.00;65.50;;;;;;4769393;29;20062;-90
2022/09/12 14:54:29;;;;;;;1.60;0.20;;;20.90;65.40;;;;;;4787582;29;20111;-91
2022/09/12 14:57:00;;;;;;;0.60;0.28;;;20.90;64.50;;;;;;4801850;29;20047;-92
2022/09/12 14:59:33;;;;;;;2.00;0.60;;;20.90;64.60;;;;;;4772507;29;20073;-88
2022/09/12 15:02:14;;;;;;;2.00;0.30;;;20.90;64.80;;;;;;4774148;29;20057;-93
2022/09/12 15:05:07;;;;;;;1.40;0.30;;;20.90;64.60;;;;;;4749241;30;20060;-88
2022/09/12 15:07:38;;;;;;;2.90;0.70;;;20.80;64.30;;;;;;4731796;30;20048;-92
2022/09/12 15:10:29;;;;;;;1.83;0.20;;;20.80;65.60;;;;;;4720290;30;20060;-92
2022/09/12 15:13:10;;;;;;;2.55;0.40;;;20.80;64.60;;;;;;4725717;30;20045;-91
2022/09/12 15:15:40;;;;;;;0.77;0.20;;;20.80;63.40;;;;;;4732107;30;20056;-91
2022/09/12 15:18:07;;;;;;;0.50;0.20;;;20.80;63.20;;;;;;4751306;30;20056;-90
2022/09/12 15:20:37;;;;;;;2.20;0.30;;;20.80;62.80;;;;;;4745900;30;20052;-91
2022/09/12 15:23:36;;;;;;;1.15;0.10;;;20.70;63.40;;;;;;4722518;30;20105;-91
2022/09/12 15:26:04;;;;;;;0.45;0.20;;;20.70;63.90;;;;;;4718306;30;22349;-91
2022/09/12 15:28:33;;;;;;;0.70;0.30;;;20.70;63.80;;;;;;4728962;30;20048;-91
2022/09/12 15:31:09;;;;;;;1.40;0.20;;;20.70;63.90;;;;;;4716534;30;20052;-93
2022/09/12 15:33:37;;;;;;;0.55;0.17;;;20.70;61.90;;;;;;4749074;30;20083;-91
2022/09/12 15:36:15;;;;;;;1.70;0.20;;;20.70;62.20;;;;;;4774589;30;20051;-89
2022/09/12 15:38:44;;;;;;;0.50;0.20;;;20.70;63.90;;;;;;4768695;29;20161;-93
2022/09/12 15:41:19;;;;;;;1.45;0.50;;;20.60;63.30;;;;;;4786711;29;20055;-93
2022/09/12 15:43:48;;;;;;;3.80;0.25;;;20.60;63.20;;;;;;4786471;29;20425;-96
2022/09/12 15:46:16;;;;;;;1.05;0.20;;;20.50;62.70;;;;;;4774175;29;20050;-93
2022/09/12 15:48:45;;;;;;;0.80;0.20;;;20.50;62.60;;;;;;4771662;29;20569;-94
2022/09/12 15:51:14;;;;;;;1.20;0.22;;;20.50;62.20;;;;;;4771618;29;20049;-94
2022/09/12 15:53:42;;;;;;;0.70;0.28;;;20.50;62.50;;;;;;4765305;29;20055;-92
2022/09/12 15:56:10;;;;;;;2.47;0.80;;;20.40;62.70;;;;;;4771231;29;20051;-93
2022/09/12 15:58:38;;;;;;;1.83;0.30;;;20.40;63.50;;;;;;4776763;29;20082;-96
2022/09/12 16:01:25;;;;;;;0.85;0.50;;;20.30;63.00;;;;;;4786211;29;20414;-92
2022/09/12 16:03:53;;;;;;;1.77;0.20;;;20.30;63.10;;;;;;4773872;29;20055;-91
2022/09/12 16:06:21;;;;;;;0.77;0.22;;;20.30;63.20;;;;;;4773461;29;20058;-91
2022/09/12 16:08:48;;;;;;;1.25;0.50;;;20.20;63.50;;;;;;4775551;29;20050;-90
2022/09/12 16:11:23;;;;;;;1.33;0.20;;;20.20;63.60;;;;;;4775796;29;20059;-92
2022/09/12 16:13:55;;;;;;;1.42;0.20;;;20.10;63.80;;;;;;4768053;30;20459;-91
2022/09/12 16:16:22;;;;;;;0.55;0.10;;;20.10;64.00;;;;;;4790418;29;20050;-93
2022/09/12 16:18:50;;;;;;;2.30;0.20;;;20.00;63.90;;;;;;4775522;29;20108;-91
2022/09/12 16:21:17;;;;;;;1.58;0.20;;;20.00;64.50;;;;;;4790360;29;20740;-93
2022/09/12 16:23:46;;;;;;;0.65;0.13;;;20.00;64.10;;;;;;4776360;29;20504;-91
2022/09/12 16:26:14;;;;;;;1.40;0.20;;;19.90;64.00;;;;;;4789425;29;20050;-92
2022/09/12 16:28:42;;;;;;;0.93;0.13;;;19.90;65.10;;;;;;4776466;29;20062;-91
2022/09/12 16:31:12;;;;;;;0.75;0.20;;;19.80;64.50;;;;;;4790705;29;20039;-91
2022/09/12 16:33:39;;;;;;;0.68;0.10;;;19.80;64.40;;;;;;4784665;29;20059;-91
2022/09/12 16:36:10;;;;;;;1.05;0.20;;;19.70;65.60;;;;;;4789789;29;20092;-92
2022/09/12 16:38:41;;;;;;;0.90;0.15;;;19.60;65.80;;;;;;4808897;29;20055;-92
2022/09/12 16:41:11;;;;;;;1.02;0.20;;;19.70;65.70;;;;;;4777677;29;20055;-91
2022/09/12 16:43:39;;;;;;;1.10;0.20;;;19.50;66.60;;;;;;4768750;29;20055;-91
2022/09/12 16:46:15;;;;;;;1.85;0.20;;;19.50;66.60;;;;;;4782903;29;20055;-93
2022/09/12 16:48:47;;;;;;;2.67;0.30;;;19.50;66.30;;;;;;4784714;29;20051;-93
2022/09/12 16:51:21;;;;;;;3.47;0.40;;;19.40;66.80;;;;;;4767365;29;20055;-92
2022/09/12 16:53:49;;;;;;;2.10;0.20;;;19.40;67.00;;;;;;4781690;29;20051;-90
2022/09/12 16:56:17;;;;;;;2.30;0.40;;;19.40;66.90;;;;;;4773613;29;20077;-92
2022/09/12 16:58:45;;;;;;;0.70;0.20;;;19.30;67.10;;;;;;4768743;30;20505;-92
2022/09/12 17:01:16;;;;;;;1.48;0.20;;;19.30;67.80;;;;;;4784008;29;20075;-92
2022/09/12 17:03:44;;;;;;;1.40;0.60;;;19.20;68.20;;;;;;4760767;29;20047;-91
2022/09/12 17:06:17;;;;;;;1.42;0.30;;;19.20;68.70;;;;;;4761359;29;20059;-91
2022/09/12 17:08:52;;;;;;;0.85;0.20;;;19.10;68.60;;;;;;4774246;29;20065;-92
2022/09/12 17:11:23;;;;;;;0.57;0.20;;;19.10;68.80;;;;;;4772813;29;20051;-92
2022/09/12 17:13:52;;;;;;;0.88;0.20;;;19.00;68.60;;;;;;4775118;29;20119;-91
2022/09/12 17:16:38;;;;;;;1.67;0.40;;;19.00;69.10;;;;;;4788998;29;20103;-91
2022/09/12 17:19:08;;;;;;;1.02;0.25;;;19.00;69.70;;;;;;4769947;29;20516;-93
2022/09/12 17:21:35;;;;;;;2.40;1.10;;;18.90;69.70;;;;;;4778337;29;20055;-95
2022/09/12 17:24:03;;;;;;;1.90;0.20;;;18.80;69.70;;;;;;4772537;29;20047;-95
2022/09/12 17:26:30;;;;;;;3.90;0.30;;;18.80;69.80;;;;;;4771876;29;20099;-95
2022/09/12 17:29:00;;;;;;;2.08;0.40;;;18.70;70.20;;;;;;4787605;29;20052;-95
2022/09/12 17:31:27;;;;;;;1.35;0.30;;;18.70;70.20;;;;;;4790176;29;20082;-96
2022/09/12 17:33:57;;;;;;;1.08;0.30;;;18.70;70.40;;;;;;4790802;29;20062;-96
2022/09/12 17:36:26;;;;;;;0.70;0.20;;;18.70;70.50;;;;;;4775640;29;20058;-95
2022/09/12 17:38:53;;;;;;;1.33;0.30;;;18.60;70.90;;;;;;4773232;29;20062;-96
2022/09/12 17:41:24;;;;;;;1.40;0.40;;;18.60;71.00;;;;;;4783495;29;20063;-95
2022/09/12 17:43:55;;;;;;;0.70;0.20;;;18.60;71.00;;;;;;4788258;29;20754;-94
2022/09/12 17:46:26;;;;;;;1.08;0.32;;;18.50;71.40;;;;;;4778508;29;20051;-95
2022/09/12 17:48:55;;;;;;;1.92;0.30;;;18.50;71.30;;;;;;4773915;29;20051;-95
2022/09/12 17:51:25;;;;;;;0.68;0.30;;;18.50;72.80;;;;;;4791226;29;20075;-94
2022/09/12 17:54:05;;;;;;;0.40;0.20;;;18.40;72.40;;;;;;4786879;29;20142;-94
2022/09/12 17:56:34;;;;;;;0.85;0.30;;;18.40;73.00;;;;;;4763230;29;20051;-94
2022/09/12 17:59:03;;;;;;;2.33;0.20;;;18.40;74.60;;;;;;4765544;29;20074;-92
2022/09/12 18:04:18;;;;;;;2.63;0.30;;;18.30;75.30;;;;;;4776323;29;20082;-94
2022/09/12 18:06:48;;;;;;;3.00;0.47;;;18.20;74.00;;;;;;4783627;29;20051;-94
2022/09/12 18:09:19;;;;;;;1.73;0.50;;;18.20;74.00;;;;;;4766407;29;20061;-94
2022/09/12 18:11:48;;;;;;;2.90;0.55;;;18.20;76.00;;;;;;4763557;29;20051;-94
2022/09/12 18:14:17;;;;;;;1.95;0.50;;;18.20;76.50;;;;;;4766907;29;20493;-93
2022/09/12 18:16:46;;;;;;;3.30;0.70;;;18.20;75.70;;;;;;4769994;29;20055;-95
2022/09/12 18:19:15;;;;;;;1.73;0.50;;;18.10;76.50;;;;;;4784462;29;20054;-95
2022/09/12 18:21:43;;;;;;;1.90;0.60;;;18.10;76.60;;;;;;4772207;29;20050;-94
2022/09/12 18:24:11;;;;;;;2.08;0.60;;;18.10;77.00;;;;;;4774995;29;20051;-94
2022/09/12 18:26:42;;;;;;;1.63;0.50;;;18.00;76.80;;;;;;4753784;30;20082;-94
2022/09/12 18:29:11;;;;;;;1.75;0.40;;;18.00;76.80;;;;;;4739070;30;20075;-94
2022/09/12 18:31:39;;;;;;;1.42;0.50;;;17.90;78.90;;;;;;4755420;30;20101;-92
2022/09/12 18:34:12;;;;;;;1.48;0.45;;;17.90;77.00;;;;;;4766085;30;20163;-93
2022/09/12 18:36:42;;;;;;;1.52;0.30;;;17.80;76.20;;;;;;4755678;30;20047;-93
2022/09/12 18:39:11;;;;;;;2.95;0.40;;;17.80;76.60;;;;;;4749115;30;20051;-94
2022/09/12 18:41:39;;;;;;;1.77;0.40;;;17.80;78.30;;;;;;4752470;30;20056;-94
2022/09/12 18:47:08;;;;;;;1.77;0.38;;;17.70;79.00;;;;;;4877655;24;20050;-93
2022/09/12 18:49:57;;;;;;;1.63;0.63;;;17.60;80.30;;;;;;4860165;24;20066;-92
2022/09/12 18:52:33;;;;;;;2.47;0.50;;;17.60;80.30;;;;;;4783140;29;20050;-91
2022/09/12 18:55:31;;;;;;;3.28;0.60;;;17.50;79.80;;;;;;4775367;29;20055;-91
